Time;durP1;ratioP1;P1;durP2;ratioP2;P2;SDS_P1;SDS_P2;PMS_P1;PMS_P2;Temp;Humidity;BMP_temperature;BMP_pressure;BME280_temperature;BME280_humidity;BME280_pressure;Samples;Min_cycle;Max_cycle;Signal;HPM_P1;HPM_P2
2021/04/20 00:00:16;;;;;;;48.65;20.27;;;2.70;99.90;;;;;;5066052;28;20375;-77
2021/04/20 00:02:41;;;;;;;50.63;21.50;;;2.60;99.90;;;;;;5072875;28;20493;-78
2021/04/20 00:05:18;;;;;;;42.85;19.15;;;2.60;99.90;;;;;;5072782;28;20035;-78
2021/04/20 00:07:46;;;;;;;53.53;22.45;;;2.60;99.90;;;;;;5074284;28;20073;-77
2021/04/20 00:10:15;;;;;;;61.95;25.88;;;2.50;99.90;;;;;;5074224;28;20025;-77
2021/04/20 00:12:41;;;;;;;56.53;24.00;;;2.50;99.90;;;;;;5074130;28;20078;-77
2021/04/20 00:15:18;;;;;;;58.33;22.65;;;2.40;99.90;;;;;;5074025;28;20095;-78
2021/04/20 00:17:44;;;;;;;53.72;24.65;;;2.40;99.90;;;;;;5072779;28;20021;-78
2021/04/20 00:20:12;;;;;;;57.75;27.17;;;2.40;99.90;;;;;;5072783;28;20024;-78
2021/04/20 00:22:38;;;;;;;46.38;19.35;;;2.40;99.90;;;;;;5072342;28;20078;-78
2021/04/20 00:25:05;;;;;;;46.95;20.45;;;2.30;99.90;;;;;;5072670;28;20020;-78
2021/04/20 00:27:30;;;;;;;41.22;19.08;;;2.30;99.90;;;;;;5073782;28;20029;-78
2021/04/20 00:29:56;;;;;;;44.20;19.05;;;2.30;99.90;;;;;;5072569;28;20025;-78
2021/04/20 00:32:22;;;;;;;40.42;17.73;;;2.30;99.90;;;;;;5072453;28;20036;-77
2021/04/20 00:34:47;;;;;;;40.35;20.35;;;2.20;99.90;;;;;;5072496;28;20025;-77
2021/04/20 00:37:13;;;;;;;42.17;18.65;;;2.20;99.90;;;;;;5073648;28;20384;-77
2021/04/20 00:39:39;;;;;;;48.92;20.88;;;2.20;99.90;;;;;;5073690;28;20027;-77
2021/04/20 00:42:07;;;;;;;46.97;19.75;;;2.20;99.90;;;;;;5072143;28;20039;-77
2021/04/20 00:44:33;;;;;;;53.22;22.77;;;2.10;99.90;;;;;;5072327;28;20111;-78
2021/04/20 00:46:59;;;;;;;47.85;21.35;;;2.10;99.90;;;;;;5072225;28;20028;-78
2021/04/20 00:49:26;;;;;;;62.58;23.45;;;2.10;99.90;;;;;;5073518;28;20509;-78
2021/04/20 00:51:53;;;;;;;46.35;19.55;;;2.10;99.90;;;;;;5071820;28;20025;-77
2021/04/20 00:54:19;;;;;;;40.92;17.33;;;2.00;99.90;;;;;;5073446;28;20055;-77
2021/04/20 00:56:45;;;;;;;39.88;18.83;;;2.00;99.90;;;;;;5073244;28;20039;-77
2021/04/20 00:59:12;;;;;;;38.13;18.23;;;1.90;99.90;;;;;;5073622;28;20032;-77
2021/04/20 01:01:38;;;;;;;42.38;18.63;;;2.00;99.90;;;;;;5073194;28;20039;-77
2021/04/20 01:04:04;;;;;;;45.88;18.92;;;1.90;99.90;;;;;;5073345;28;20385;-78
2021/04/20 01:06:30;;;;;;;43.60;19.15;;;1.90;99.90;;;;;;5073172;28;20032;-77
2021/04/20 01:08:57;;;;;;;65.75;28.58;;;1.90;99.90;;;;;;5071807;28;20039;-77
2021/04/20 01:11:23;;;;;;;55.63;23.23;;;1.90;99.90;;;;;;5073075;28;20024;-77
2021/04/20 01:13:49;;;;;;;61.42;24.88;;;1.90;99.90;;;;;;5072002;28;20078;-77
2021/04/20 01:16:19;;;;;;;80.78;35.13;;;1.90;99.90;;;;;;5073048;28;20379;-77
2021/04/20 01:18:44;;;;;;;53.50;20.38;;;1.80;99.90;;;;;;5071699;28;20016;-76
2021/04/20 01:21:12;;;;;;;39.47;21.75;;;1.70;99.90;;;;;;5071346;28;20051;-77
2021/04/20 01:24:01;;;;;;;39.42;17.52;;;1.70;99.90;;;;;;5071637;28;20032;-76
2021/04/20 01:26:30;;;;;;;27.83;14.02;;;1.70;99.90;;;;;;5072898;28;20044;-77
2021/04/20 01:28:57;;;;;;;38.78;18.90;;;1.60;99.90;;;;;;5072929;28;20024;-77
2021/04/20 01:31:23;;;;;;;33.00;18.55;;;1.60;99.90;;;;;;5072813;28;20074;-77
2021/04/20 01:33:49;;;;;;;49.42;21.30;;;1.60;99.90;;;;;;5071268;28;20016;-77
2021/04/20 01:36:17;;;;;;;50.20;24.33;;;1.60;99.90;;;;;;5072408;28;20033;-77
2021/04/20 01:38:45;;;;;;;58.28;24.15;;;1.50;99.90;;;;;;5071448;28;20028;-77
2021/04/20 01:41:11;;;;;;;50.15;22.38;;;1.50;99.90;;;;;;5071382;28;20036;-77
2021/04/20 01:43:38;;;;;;;63.03;27.75;;;1.50;99.90;;;;;;5071402;28;20028;-77
2021/04/20 01:46:04;;;;;;;60.88;26.13;;;1.40;99.90;;;;;;5072801;28;20027;-77
2021/04/20 01:48:31;;;;;;;52.20;22.17;;;1.40;99.90;;;;;;5072701;28;20440;-77
2021/04/20 01:50:56;;;;;;;57.58;21.95;;;1.40;99.90;;;;;;5071051;28;20482;-77
2021/04/20 01:53:22;;;;;;;55.97;26.35;;;1.40;99.90;;;;;;5071261;28;20032;-77
2021/04/20 01:55:48;;;;;;;50.22;23.25;;;1.30;99.90;;;;;;5072919;28;20021;-77
2021/04/20 01:58:16;;;;;;;54.88;23.48;;;1.30;99.90;;;;;;5072452;28;20025;-77
2021/04/20 02:00:43;;;;;;;57.10;23.90;;;1.30;99.90;;;;;;5071246;28;20020;-76
2021/04/20 02:03:09;;;;;;;50.50;25.20;;;1.30;99.90;;;;;;5071218;28;20127;-77
2021/04/20 02:05:38;;;;;;;49.83;21.88;;;1.30;99.90;;;;;;5072594;28;20021;-77
2021/04/20 02:08:05;;;;;;;55.25;22.85;;;1.30;99.90;;;;;;5070803;28;20386;-77
2021/04/20 02:10:31;;;;;;;59.25;26.08;;;1.30;99.90;;;;;;5071251;28;20020;-77
2021/04/20 02:12:57;;;;;;;54.45;23.90;;;1.20;99.90;;;;;;5072492;28;20024;-77
2021/04/20 02:15:23;;;;;;;48.28;22.35;;;1.20;99.90;;;;;;5071086;28;20065;-77
2021/04/20 02:17:50;;;;;;;54.45;25.70;;;1.20;99.90;;;;;;5071110;28;20016;-77
2021/04/20 02:20:16;;;;;;;64.90;27.30;;;1.20;99.90;;;;;;5071104;28;20021;-77
2021/04/20 02:22:44;;;;;;;63.15;28.58;;;1.20;99.90;;;;;;5072255;28;20541;-77
2021/04/20 02:25:13;;;;;;;65.93;29.88;;;1.10;99.90;;;;;;5070881;28;20025;-76
2021/04/20 02:27:39;;;;;;;69.22;27.88;;;1.10;99.90;;;;;;5072280;28;20025;-77
2021/04/20 02:30:08;;;;;;;60.28;25.73;;;1.10;99.90;;;;;;5072570;28;20381;-78
2021/04/20 02:32:38;;;;;;;65.30;29.40;;;1.10;99.90;;;;;;5072268;28;20477;-77
2021/04/20 02:35:06;;;;;;;61.45;29.38;;;1.10;99.90;;;;;;5072242;28;20052;-78
2021/04/20 02:37:35;;;;;;;53.70;28.40;;;1.10;99.90;;;;;;5070941;28;20013;-77
2021/04/20 02:40:05;;;;;;;82.43;33.38;;;1.10;99.90;;;;;;5072214;28;20474;-77
2021/04/20 02:42:33;;;;;;;88.22;39.55;;;1.10;99.90;;;;;;5070863;28;20483;-77
2021/04/20 02:45:00;;;;;;;85.80;38.10;;;1.10;99.90;;;;;;5073550;28;20033;-77
2021/04/20 02:47:28;;;;;;;96.15;43.80;;;1.10;99.90;;;;;;5075710;28;20020;-77
2021/04/20 02:49:54;;;;;;;108.25;52.42;;;1.00;99.90;;;;;;5075833;28;20082;-77
2021/04/20 02:52:21;;;;;;;112.13;46.83;;;1.00;99.90;;;;;;5074426;28;20028;-77
2021/04/20 02:54:47;;;;;;;127.78;50.13;;;1.00;99.90;;;;;;5075767;28;20119;-77
2021/04/20 02:57:14;;;;;;;121.32;46.58;;;1.00;99.90;;;;;;5075580;28;20488;-77
2021/04/20 02:59:42;;;;;;;122.95;45.00;;;1.00;99.90;;;;;;5074520;28;20081;-77
2021/04/20 03:02:09;;;;;;;108.53;39.42;;;0.90;99.90;;;;;;5075487;28;20067;-76
2021/04/20 03:04:36;;;;;;;123.20;45.72;;;0.90;99.90;;;;;;5075531;28;20024;-77
2021/04/20 03:07:02;;;;;;;161.25;50.50;;;0.90;99.90;;;;;;5073865;28;20161;-77
2021/04/20 03:09:29;;;;;;;153.73;49.22;;;0.80;99.90;;;;;;5073857;28;20116;-77
2021/04/20 03:11:57;;;;;;;125.93;49.65;;;0.80;99.90;;;;;;5073904;28;20017;-77
2021/04/20 03:14:23;;;;;;;167.20;59.25;;;0.80;99.90;;;;;;5075127;28;20020;-77
2021/04/20 03:16:49;;;;;;;148.35;58.25;;;0.80;99.90;;;;;;5073759;28;20028;-77
2021/04/20 03:19:16;;;;;;;207.57;70.40;;;0.80;99.90;;;;;;5073899;28;20414;-77
2021/04/20 03:21:43;;;;;;;281.98;91.53;;;0.90;99.90;;;;;;5074838;28;20048;-77
2021/04/20 03:24:24;;;;;;;186.98;65.00;;;0.80;99.90;;;;;;5075749;28;20382;-77
2021/04/20 03:26:49;;;;;;;185.65;59.55;;;0.90;99.90;;;;;;5074899;28;20020;-77
2021/04/20 03:29:15;;;;;;;180.70;62.72;;;1.00;99.90;;;;;;5073709;28;20470;-77
2021/04/20 03:31:41;;;;;;;176.95;58.83;;;1.10;99.90;;;;;;5074788;28;20021;-77
2021/04/20 03:34:37;;;;;;;153.77;52.97;;;1.20;99.90;;;;;;5073468;28;20071;-77
2021/04/20 03:37:17;;;;;;;102.57;38.00;;;1.30;99.90;;;;;;5074862;28;20389;-77
2021/04/20 03:39:49;;;;;;;89.75;32.05;;;1.50;99.90;;;;;;5073381;28;20401;-77
2021/04/20 03:42:30;;;;;;;76.65;33.92;;;2.00;99.90;;;;;;5074599;28;20048;-77
2021/04/20 03:45:10;;;;;;;81.07;35.08;;;2.90;99.90;;;;;;5074447;28;20370;-77
2021/04/20 03:47:42;;;;;;;66.20;28.98;;;3.40;99.90;;;;;;5074701;28;20020;-77
2021/04/20 03:50:13;;;;;;;70.88;30.95;;;3.80;99.90;;;;;;5073337;28;20099;-78
2021/04/20 03:52:44;;;;;;;46.33;22.85;;;3.70;99.90;;;;;;5074566;28;20047;-77
2021/04/20 03:55:13;;;;;;;41.15;20.30;;;3.60;99.90;;;;;;5074476;28;20097;-77
2021/04/20 03:57:42;;;;;;;48.13;23.85;;;3.60;99.90;;;;;;5074334;28;20020;-77
2021/04/20 04:00:09;;;;;;;49.58;23.95;;;3.70;99.90;;;;;;5074411;28;20050;-77
2021/04/20 04:02:38;;;;;;;43.78;21.35;;;4.00;99.90;;;;;;5072840;28;20033;-77
2021/04/20 04:05:07;;;;;;;38.78;19.27;;;4.10;99.90;;;;;;5072934;28;20024;-77
2021/04/20 04:07:33;;;;;;;42.17;19.88;;;4.10;99.90;;;;;;5074242;28;20074;-77
2021/04/20 04:10:01;;;;;;;42.25;20.63;;;4.00;99.90;;;;;;5072853;28;20027;-77
2021/04/20 04:12:27;;;;;;;33.83;18.65;;;4.00;99.90;;;;;;5072586;28;20039;-77
2021/04/20 04:14:55;;;;;;;69.40;33.33;;;4.00;99.90;;;;;;5074061;28;20024;-77
2021/04/20 04:17:23;;;;;;;76.03;33.42;;;4.00;99.90;;;;;;5073914;28;20039;-77
2021/04/20 04:19:53;;;;;;;87.18;38.78;;;4.00;99.90;;;;;;5072700;28;20035;-77
2021/04/20 04:22:24;;;;;;;75.00;37.03;;;4.00;99.90;;;;;;5065526;28;20103;-77
2021/04/20 04:24:53;;;;;;;65.22;30.40;;;4.00;99.90;;;;;;5052346;28;20060;-77
2021/04/20 04:27:22;;;;;;;74.90;35.85;;;3.80;99.90;;;;;;5052532;28;20025;-77
2021/04/20 04:29:51;;;;;;;73.45;33.53;;;3.70;99.90;;;;;;5053648;28;20405;-77
2021/04/20 04:32:18;;;;;;;53.45;26.83;;;3.60;99.90;;;;;;5052992;28;20028;-77
2021/04/20 04:34:46;;;;;;;41.75;21.02;;;3.50;99.90;;;;;;5052528;28;20116;-77
2021/04/20 04:37:14;;;;;;;89.22;42.33;;;3.60;99.90;;;;;;5053381;28;20053;-77
2021/04/20 04:39:44;;;;;;;67.88;34.70;;;3.60;99.90;;;;;;5052287;28;20025;-77
2021/04/20 04:42:11;;;;;;;46.47;24.60;;;3.60;99.90;;;;;;5051982;28;20036;-77
2021/04/20 04:44:37;;;;;;;112.43;55.22;;;3.60;99.90;;;;;;5053515;28;20021;-78
2021/04/20 04:47:05;;;;;;;99.13;50.75;;;3.60;99.90;;;;;;5053259;28;20390;-77
2021/04/20 04:49:32;;;;;;;60.90;32.05;;;3.80;99.90;;;;;;5053237;28;20029;-78
2021/04/20 04:51:59;;;;;;;54.10;30.17;;;4.00;99.90;;;;;;5051816;28;20025;-77
2021/04/20 04:54:26;;;;;;;44.80;24.55;;;4.10;99.90;;;;;;5051904;28;20028;-77
2021/04/20 04:56:54;;;;;;;48.53;26.20;;;4.20;99.90;;;;;;5052022;28;20025;-76
2021/04/20 04:59:21;;;;;;;40.80;24.48;;;4.40;99.90;;;;;;5051678;28;20418;-76
2021/04/20 05:01:48;;;;;;;38.75;23.58;;;4.60;99.90;;;;;;5051690;28;20029;-76
2021/04/20 05:04:14;;;;;;;34.17;19.42;;;4.70;99.90;;;;;;5053232;28;20049;-77
2021/04/20 05:06:48;;;;;;;33.10;20.02;;;4.80;99.90;;;;;;5052802;28;20071;-76
2021/04/20 05:09:16;;;;;;;31.17;17.83;;;5.10;99.90;;;;;;5051468;28;20025;-77
2021/04/20 05:11:43;;;;;;;31.23;18.38;;;5.40;99.90;;;;;;5051567;28;20027;-77
2021/04/20 05:14:11;;;;;;;27.63;16.75;;;5.60;99.90;;;;;;5051613;28;20013;-77
2021/04/20 05:16:40;;;;;;;32.92;18.75;;;6.00;99.90;;;;;;5052614;28;20032;-77
2021/04/20 05:19:08;;;;;;;29.40;17.05;;;6.20;99.90;;;;;;5051484;28;20013;-77
2021/04/20 05:21:34;;;;;;;47.92;20.08;;;6.40;99.90;;;;;;5052683;28;20043;-76
2021/04/20 05:24:00;;;;;;;35.30;18.55;;;6.70;99.90;;;;;;5067380;28;20069;-77
2021/04/20 05:26:27;;;;;;;33.58;18.38;;;6.80;99.90;;;;;;5072738;28;20107;-76
2021/04/20 05:28:54;;;;;;;24.90;15.88;;;7.00;99.90;;;;;;5068596;28;20399;-76
2021/04/20 05:31:20;;;;;;;28.73;16.70;;;7.10;99.90;;;;;;5056355;28;20463;-78
2021/04/20 05:33:45;;;;;;;27.73;16.75;;;7.20;99.90;;;;;;5052444;28;20032;-77
2021/04/20 05:36:12;;;;;;;27.85;17.35;;;7.40;99.90;;;;;;5058789;28;20054;-79
2021/04/20 05:38:37;;;;;;;26.23;16.27;;;7.50;99.90;;;;;;5069403;28;20017;-78
2021/04/20 05:41:04;;;;;;;28.35;15.40;;;7.50;99.90;;;;;;5072535;28;20025;-79
2021/04/20 05:43:30;;;;;;;25.42;15.95;;;7.60;99.90;;;;;;5072674;28;20024;-77
2021/04/20 05:45:55;;;;;;;32.28;18.48;;;7.70;99.90;;;;;;5071018;28;20027;-78
2021/04/20 05:48:22;;;;;;;25.05;15.82;;;7.70;99.30;;;;;;5071180;28;20017;-78
2021/04/20 05:50:51;;;;;;;26.30;16.15;;;7.80;99.50;;;;;;5065836;28;20057;-77
2021/04/20 05:53:17;;;;;;;26.85;15.85;;;8.00;99.90;;;;;;5067963;28;20085;-77
2021/04/20 05:55:43;;;;;;;25.98;15.15;;;8.10;99.90;;;;;;5067710;28;20066;-77
2021/04/20 05:58:09;;;;;;;25.73;15.27;;;8.20;97.90;;;;;;5070360;28;20032;-78
2021/04/20 06:00:35;;;;;;;24.02;14.52;;;8.40;97.10;;;;;;5067717;28;20021;-79
2021/04/20 06:03:01;;;;;;;21.05;14.65;;;8.50;96.80;;;;;;5070514;28;20052;-78
2021/04/20 06:05:28;;;;;;;27.88;13.82;;;8.70;97.10;;;;;;5070891;28;20048;-78
2021/04/20 06:07:57;;;;;;;21.77;12.00;;;8.90;93.50;;;;;;5070354;28;20024;-78
2021/04/20 06:10:24;;;;;;;21.23;11.60;;;9.00;87.90;;;;;;5070102;28;20381;-78
2021/04/20 06:12:50;;;;;;;20.88;12.05;;;9.10;87.10;;;;;;5059767;28;20071;-78
2021/04/20 06:15:22;;;;;;;21.77;11.95;;;9.20;83.80;;;;;;5057850;28;20045;-78
2021/04/20 06:17:48;;;;;;;19.10;11.95;;;9.30;85.80;;;;;;5059377;28;20017;-78
2021/04/20 06:20:16;;;;;;;18.55;11.20;;;9.50;85.00;;;;;;5061356;28;20062;-78
2021/04/20 06:22:46;;;;;;;18.33;11.43;;;9.60;83.50;;;;;;5065310;28;20033;-78
2021/04/20 06:25:13;;;;;;;22.98;13.20;;;9.80;82.80;;;;;;5064474;28;20028;-78
2021/04/20 06:27:40;;;;;;;24.30;12.45;;;9.90;81.40;;;;;;5063874;28;20473;-78
2021/04/20 06:30:08;;;;;;;17.48;9.63;;;10.10;78.90;;;;;;5064569;28;20017;-78
2021/04/20 06:32:42;;;;;;;19.05;11.27;;;10.20;76.40;;;;;;5063547;28;20032;-78
2021/04/20 06:35:13;;;;;;;22.45;10.98;;;10.20;76.80;;;;;;5066710;28;20043;-78
2021/04/20 06:37:42;;;;;;;15.32;9.10;;;10.40;75.00;;;;;;5074698;28;20028;-78
2021/04/20 06:40:13;;;;;;;14.60;9.38;;;10.50;74.70;;;;;;5075497;28;20035;-77
2021/04/20 06:43:03;;;;;;;15.10;9.77;;;10.60;74.60;;;;;;5074218;28;20037;-78
2021/04/20 06:45:55;;;;;;;15.15;9.38;;;10.80;74.80;;;;;;5062873;28;20504;-78
2021/04/20 06:48:42;;;;;;;13.35;9.10;;;10.90;72.40;;;;;;5066262;28;20549;-78
2021/04/20 06:51:19;;;;;;;12.65;7.15;;;11.10;71.80;;;;;;5063718;28;20021;-78
2021/04/20 06:53:48;;;;;;;12.35;7.85;;;11.10;66.50;;;;;;5066788;28;20332;-77
2021/04/20 06:56:20;;;;;;;9.30;6.00;;;11.20;66.50;;;;;;5071059;28;20059;-78
2021/04/20 06:59:23;;;;;;;13.43;7.63;;;11.20;65.40;;;;;;5063534;28;20503;-77
2021/04/20 07:02:19;;;;;;;10.07;6.28;;;11.20;65.10;;;;;;5060284;28;20407;-77
2021/04/20 07:05:09;;;;;;;8.15;6.40;;;11.40;64.70;;;;;;5060455;28;20124;-78
2021/04/20 07:07:42;;;;;;;9.68;6.28;;;11.60;64.60;;;;;;5054058;28;20037;-78
2021/04/20 07:10:13;;;;;;;8.88;5.35;;;11.60;64.10;;;;;;5053960;28;20021;-78
2021/04/20 07:12:41;;;;;;;6.75;4.63;;;11.70;62.20;;;;;;5053831;28;20021;-78
2021/04/20 07:15:11;;;;;;;6.95;4.70;;;11.80;59.10;;;;;;5053797;28;20025;-78
2021/04/20 07:17:36;;;;;;;6.68;4.90;;;11.70;59.00;;;;;;5055189;28;20360;-78
2021/04/20 07:20:28;;;;;;;5.20;3.88;;;11.70;59.00;;;;;;5055118;28;20056;-78
2021/04/20 07:23:08;;;;;;;5.70;3.67;;;11.80;58.00;;;;;;5054948;28;20052;-78
2021/04/20 07:26:18;;;;;;;4.70;3.75;;;11.90;57.50;;;;;;5055065;28;20021;-78
2021/04/20 07:29:08;;;;;;;10.85;4.00;;;12.00;56.10;;;;;;5048902;28;20033;-78
2021/04/20 07:32:06;;;;;;;4.65;3.33;;;12.00;56.80;;;;;;5054520;28;20096;-78
2021/04/20 07:34:49;;;;;;;3.95;3.38;;;12.00;56.20;;;;;;5054847;28;20021;-78
2021/04/20 07:37:34;;;;;;;5.57;4.13;;;11.90;56.70;;;;;;5053450;28;20117;-78
2021/04/20 07:40:18;;;;;;;6.30;3.88;;;12.00;56.50;;;;;;5054851;28;20104;-78
2021/04/20 07:42:53;;;;;;;10.70;5.22;;;12.20;56.90;;;;;;5054406;28;20079;-78
2021/04/20 07:45:26;;;;;;;8.20;5.15;;;12.20;57.20;;;;;;5054672;28;20028;-78
2021/04/20 07:48:07;;;;;;;4.93;3.78;;;12.20;56.70;;;;;;5053197;28;20368;-78
2021/04/20 07:50:42;;;;;;;6.55;3.97;;;12.40;56.50;;;;;;5054259;28;20019;-77
2021/04/20 07:53:34;;;;;;;5.90;3.90;;;12.30;56.40;;;;;;5053152;28;20451;-78
2021/04/20 07:56:00;;;;;;;3.90;3.50;;;12.40;56.70;;;;;;5054676;28;20017;-78
2021/04/20 07:58:33;;;;;;;6.55;4.50;;;12.50;56.60;;;;;;5053167;28;20131;-77
2021/04/20 08:01:44;;;;;;;3.78;3.00;;;12.70;56.30;;;;;;5053258;28;20017;-78
2021/04/20 08:04:28;;;;;;;6.45;3.67;;;12.40;55.90;;;;;;5051482;28;20044;-77
2021/04/20 08:07:00;;;;;;;5.03;3.80;;;12.30;56.60;;;;;;5053295;28;20470;-78
2021/04/20 08:09:29;;;;;;;;;;;12.00;56.00;;;;;;5053384;28;20640;-78
2021/04/20 08:12:04;;;;;;;5.07;3.03;;;11.90;56.90;;;;;;5052905;28;19911;-78
2021/04/20 08:14:46;;;;;;;4.25;3.13;;;11.70;56.40;;;;;;5052919;28;20390;-78
2021/04/20 08:17:18;;;;;;;4.97;3.50;;;11.70;56.50;;;;;;5052004;28;20378;-78
2021/04/20 08:19:54;;;;;;;4.65;3.55;;;11.90;57.90;;;;;;5052547;28;20025;-78
2021/04/20 08:22:20;;;;;;;6.72;4.95;;;12.00;56.80;;;;;;5053918;28;20110;-78
2021/04/20 08:25:24;;;;;;;11.07;6.10;;;12.10;57.00;;;;;;5052555;28;20075;-78
2021/04/20 08:27:57;;;;;;;8.50;3.92;;;12.20;56.60;;;;;;5040729;28;20033;-78
2021/04/20 08:30:54;;;;;;;9.50;3.70;;;12.30;55.20;;;;;;5053528;28;20020;-78
2021/04/20 08:33:32;;;;;;;5.30;3.13;;;12.00;52.30;;;;;;5041925;28;20571;-78
2021/04/20 08:36:03;;;;;;;7.40;4.18;;;11.90;51.70;;;;;;5053662;28;20017;-78
2021/04/20 08:38:42;;;;;;;5.03;3.80;;;12.00;52.70;;;;;;5053416;28;20028;-78
2021/04/20 08:41:20;;;;;;;7.30;3.78;;;11.90;52.70;;;;;;5053336;28;20025;-78
2021/04/20 08:44:00;;;;;;;5.07;3.78;;;12.20;53.40;;;;;;5051423;28;20024;-78
2021/04/20 08:47:01;;;;;;;13.43;3.55;;;12.40;53.30;;;;;;5053456;28;20497;-77
2021/04/20 08:49:46;;;;;;;5.00;2.72;;;12.70;51.90;;;;;;4999658;28;20037;-78
2021/04/20 08:52:31;;;;;;;5.05;3.10;;;12.80;49.70;;;;;;5059333;28;20025;-78
2021/04/20 08:54:57;;;;;;;4.53;3.30;;;12.90;49.30;;;;;;5061282;28;20028;-78
2021/04/20 08:58:05;;;;;;;4.00;2.65;;;13.20;49.60;;;;;;5063381;28;20035;-78
2021/04/20 09:00:50;;;;;;;3.30;3.00;;;13.20;47.60;;;;;;5070864;28;20408;-78
2021/04/20 09:03:22;;;;;;;4.50;3.03;;;13.50;48.60;;;;;;5054535;28;20044;-79
2021/04/20 09:05:59;;;;;;;5.70;4.18;;;13.40;49.20;;;;;;5061453;28;20474;-79
2021/04/20 09:08:32;;;;;;;7.75;4.05;;;13.00;49.40;;;;;;5060858;28;20071;-80
2021/04/20 09:11:09;;;;;;;5.20;4.40;;;12.90;51.70;;;;;;5067252;28;20024;-78
2021/04/20 09:13:50;;;;;;;4.60;4.20;;;12.80;52.20;;;;;;5071739;28;20166;-79
2021/04/20 09:16:24;;;;;;;5.82;4.53;;;12.70;51.10;;;;;;5071628;28;20028;-79
2021/04/20 09:18:52;;;;;;;6.05;4.18;;;12.70;51.90;;;;;;5071630;28;20035;-78
2021/04/20 09:21:44;;;;;;;5.20;4.10;;;12.50;52.10;;;;;;5070901;28;20020;-78
2021/04/20 09:24:17;;;;;;;8.32;4.53;;;12.60;52.50;;;;;;5062060;28;20648;-78
2021/04/20 09:26:52;;;;;;;7.00;4.00;;;12.60;53.20;;;;;;5058331;28;20037;-78
2021/04/20 09:29:34;;;;;;;6.85;4.50;;;12.40;52.00;;;;;;5070935;28;20391;-78
2021/04/20 09:32:13;;;;;;;;;;;12.40;53.60;;;;;;5062027;28;20432;-78
2021/04/20 09:34:42;;;;;;;8.60;5.35;;;12.40;54.30;;;;;;5062305;28;19927;-78
2021/04/20 09:37:08;;;;;;;8.65;5.85;;;12.40;55.10;;;;;;5059599;28;20536;-78
2021/04/20 09:39:39;;;;;;;8.80;6.15;;;12.30;54.90;;;;;;5062890;28;20050;-78
2021/04/20 09:42:07;;;;;;;8.82;5.50;;;12.00;56.00;;;;;;5062986;28;20048;-79
2021/04/20 09:45:04;;;;;;;9.55;6.68;;;11.90;57.30;;;;;;5061383;28;20496;-78
2021/04/20 09:47:58;;;;;;;10.13;6.53;;;11.90;59.30;;;;;;5062044;28;20020;-78
2021/04/20 09:50:27;;;;;;;10.45;6.95;;;11.80;59.20;;;;;;5061355;28;20017;-78
2021/04/20 09:53:29;;;;;;;8.32;6.30;;;11.80;58.60;;;;;;5064847;28;20409;-78
2021/04/20 09:56:03;;;;;;;9.02;6.28;;;11.70;59.30;;;;;;5073951;28;20487;-78
2021/04/20 09:58:31;;;;;;;14.88;7.72;;;11.70;60.40;;;;;;5057739;28;20029;-78
2021/04/20 10:01:07;;;;;;;10.02;6.75;;;11.60;59.50;;;;;;5057644;28;20028;-78
2021/04/20 10:03:38;;;;;;;8.88;6.38;;;11.50;59.40;;;;;;5066609;28;20041;-78
2021/04/20 10:06:38;;;;;;;9.20;6.45;;;11.50;60.40;;;;;;5062651;28;20104;-77
2021/04/20 10:09:16;;;;;;;10.75;8.02;;;11.60;59.40;;;;;;5059059;28;20108;-78
2021/04/20 10:11:50;;;;;;;11.82;7.25;;;11.70;58.60;;;;;;5062917;28;20078;-78
2021/04/20 10:14:39;;;;;;;8.27;6.63;;;11.90;59.20;;;;;;5069444;28;20021;-78
2021/04/20 10:17:16;;;;;;;10.20;6.45;;;12.00;57.90;;;;;;5067033;28;20611;-78
2021/04/20 10:19:53;;;;;;;8.63;6.05;;;12.00;56.30;;;;;;5067254;28;20056;-78
2021/04/20 10:22:35;;;;;;;5.97;3.55;;;12.10;56.00;;;;;;5066491;28;20025;-78
2021/04/20 10:25:12;;;;;;;8.68;4.95;;;12.20;52.90;;;;;;5083743;28;20028;-78
2021/04/20 10:27:39;;;;;;;11.20;5.07;;;12.10;51.80;;;;;;5066227;28;20028;-78
2021/04/20 10:30:11;;;;;;;4.88;3.97;;;12.10;52.00;;;;;;5072614;28;20025;-78
2021/04/20 10:32:49;;;;;;;6.75;3.78;;;12.30;52.00;;;;;;5065927;28;20461;-78
2021/04/20 10:35:20;;;;;;;5.55;4.35;;;12.40;51.90;;;;;;5066099;28;20016;-78
2021/04/20 10:37:56;;;;;;;6.32;4.68;;;12.30;51.40;;;;;;5066667;28;20041;-78
2021/04/20 10:40:34;;;;;;;8.13;4.13;;;12.40;52.20;;;;;;5066447;28;20146;-78
2021/04/20 10:43:15;;;;;;;8.80;4.95;;;12.50;51.20;;;;;;5065883;28;20029;-78
2021/04/20 10:45:42;;;;;;;6.85;3.92;;;12.60;51.70;;;;;;5067293;28;20063;-78
2021/04/20 10:48:09;;;;;;;13.15;6.47;;;12.60;51.40;;;;;;5068299;28;20063;-78
2021/04/20 10:50:39;;;;;;;7.15;3.97;;;13.00;51.70;;;;;;5069138;28;20140;-78
2021/04/20 10:53:07;;;;;;;4.53;3.47;;;13.20;50.20;;;;;;5059859;28;20055;-78
2021/04/20 10:55:36;;;;;;;4.95;4.18;;;13.30;49.30;;;;;;5058685;28;20459;-78
2021/04/20 10:58:05;;;;;;;12.80;4.18;;;13.30;49.60;;;;;;5062000;28;20120;-77
2021/04/20 11:00:33;;;;;;;6.03;3.90;;;13.40;49.50;;;;;;5065165;28;20543;-78
2021/04/20 11:02:59;;;;;;;10.10;4.82;;;13.40;49.20;;;;;;5067951;28;20028;-77
2021/04/20 11:05:27;;;;;;;5.85;4.03;;;13.30;49.50;;;;;;5067999;28;20064;-77
2021/04/20 11:07:55;;;;;;;6.03;4.30;;;13.50;50.90;;;;;;5063046;28;20100;-78
2021/04/20 11:10:27;;;;;;;7.97;4.60;;;13.60;50.40;;;;;;5065094;28;20013;-78
2021/04/20 11:12:53;;;;;;;5.00;4.25;;;13.50;51.00;;;;;;5075348;28;20027;-78
2021/04/20 11:15:24;;;;;;;5.18;3.65;;;13.20;49.20;;;;;;5075163;28;20020;-78
2021/04/20 11:17:56;;;;;;;6.15;4.63;;;13.20;49.80;;;;;;5073541;28;20028;-78
2021/04/20 11:20:28;;;;;;;5.30;4.72;;;13.20;51.10;;;;;;5075217;28;20030;-78
2021/04/20 11:23:02;;;;;;;5.28;4.15;;;13.50;52.50;;;;;;5073746;28;20036;-78
2021/04/20 11:25:49;;;;;;;5.00;4.50;;;13.60;50.40;;;;;;5065612;28;20532;-79
2021/04/20 11:28:21;;;;;;;6.55;4.35;;;13.50;50.20;;;;;;5071007;28;20138;-78
2021/04/20 11:30:58;;;;;;;7.43;4.55;;;13.50;49.60;;;;;;5075013;28;20085;-78
2021/04/20 11:33:47;;;;;;;7.57;4.85;;;13.70;49.00;;;;;;5073497;28;20020;-78
2021/04/20 11:36:41;;;;;;;14.25;4.72;;;14.00;49.40;;;;;;5074692;28;20021;-79
2021/04/20 11:39:11;;;;;;;4.90;4.07;;;14.20;48.80;;;;;;5073517;28;20470;-78
2021/04/20 11:41:55;;;;;;;4.47;3.97;;;14.40;48.00;;;;;;5073340;28;20036;-78
2021/04/20 11:44:22;;;;;;;6.90;4.72;;;14.70;48.20;;;;;;5073449;28;20016;-79
2021/04/20 11:46:50;;;;;;;7.90;4.75;;;14.70;47.20;;;;;;5073346;28;20063;-78
2021/04/20 11:49:26;;;;;;;7.70;4.90;;;14.80;44.80;;;;;;5065634;28;20021;-78
2021/04/20 11:51:54;;;;;;;12.88;6.35;;;14.80;45.90;;;;;;5064615;28;20027;-78
2021/04/20 11:54:23;;;;;;;18.45;6.10;;;14.80;48.30;;;;;;5074159;28;20036;-78
2021/04/20 11:56:50;;;;;;;6.00;4.85;;;14.60;48.90;;;;;;5058268;28;20417;-78
2021/04/20 11:59:26;;;;;;;8.73;4.40;;;14.30;48.60;;;;;;5054410;28;20032;-79
2021/04/20 12:01:53;;;;;;;7.10;4.43;;;14.00;48.90;;;;;;5062548;28;20024;-78
2021/04/20 12:04:26;;;;;;;4.45;3.95;;;13.90;48.60;;;;;;5063460;28;20028;-78
2021/04/20 12:06:52;;;;;;;8.48;4.53;;;13.80;48.50;;;;;;5064816;28;20024;-78
2021/04/20 12:09:25;;;;;;;6.47;4.35;;;13.80;48.40;;;;;;5072797;28;20032;-78
2021/04/20 12:11:54;;;;;;;7.68;4.28;;;13.90;48.00;;;;;;5072755;28;20130;-78
2021/04/20 12:14:22;;;;;;;6.95;3.45;;;14.20;48.40;;;;;;5072594;28;20382;-78
2021/04/20 12:16:53;;;;;;;5.07;4.10;;;14.10;47.60;;;;;;5056820;28;20060;-78
2021/04/20 12:19:24;;;;;;;8.77;4.30;;;13.80;47.50;;;;;;5053767;28;20021;-78
2021/04/20 12:21:55;;;;;;;6.00;4.15;;;13.60;48.80;;;;;;5053845;28;20017;-78
2021/04/20 12:24:26;;;;;;;7.85;4.28;;;13.60;49.70;;;;;;5053787;28;20574;-78
2021/04/20 12:26:57;;;;;;;8.07;5.85;;;13.50;50.30;;;;;;5053758;28;20025;-78
2021/04/20 12:29:30;;;;;;;4.22;3.83;;;13.40;49.50;;;;;;5057247;28;20017;-78
2021/04/20 12:31:56;;;;;;;5.20;4.40;;;13.30;49.60;;;;;;5053642;28;20036;-79
2021/04/20 12:34:29;;;;;;;5.00;4.03;;;13.40;49.70;;;;;;5053502;28;20387;-79
2021/04/20 12:37:03;;;;;;;5.75;4.30;;;13.60;49.60;;;;;;5052369;28;20155;-78
2021/04/20 12:39:52;;;;;;;6.35;4.43;;;14.00;50.10;;;;;;5052247;28;20024;-79
2021/04/20 12:42:20;;;;;;;8.60;4.03;;;14.40;48.90;;;;;;5052811;28;20037;-80
2021/04/20 12:44:53;;;;;;;34.58;5.22;;;14.70;48.60;;;;;;5053423;28;20089;-80
2021/04/20 12:47:25;;;;;;;7.65;4.10;;;15.10;48.10;;;;;;5053275;28;20028;-78
2021/04/20 12:49:52;;;;;;;6.32;3.70;;;15.10;46.40;;;;;;5053306;28;20036;-78
2021/04/20 12:52:23;;;;;;;4.65;4.25;;;14.70;45.40;;;;;;5053304;28;20021;-79
2021/04/20 12:54:53;;;;;;;4.05;3.75;;;14.50;46.40;;;;;;5053289;28;20633;-79
2021/04/20 12:57:21;;;;;;;7.43;4.10;;;14.30;46.20;;;;;;5051219;28;20489;-78
2021/04/20 12:59:50;;;;;;;4.47;3.45;;;14.40;46.60;;;;;;5053275;28;20032;-78
2021/04/20 13:02:20;;;;;;;4.60;3.47;;;14.30;46.30;;;;;;5051692;28;20033;-79
2021/04/20 13:04:50;;;;;;;3.88;3.50;;;14.10;45.50;;;;;;5051647;28;20057;-79